Time;durP1;ratioP1;P1;durP2;ratioP2;P2;SDS_P1;SDS_P2;PMS_P1;PMS_P2;Temp;Humidity;BMP_temperature;BMP_pressure;BME280_temperature;BME280_humidity;BME280_pressure;Samples;Min_cycle;Max_cycle;Signal;HPM_P1;HPM_P2
2021/12/07 00:01:15;;;;;;;151.37;43.47;;;;;;;;;;5136443;27;20221;-67
2021/12/07 00:03:42;;;;;;;152.37;44.03;;;;;;;;;;5135264;27;20222;-67
2021/12/07 00:06:10;;;;;;;149.13;43.87;;;;;;;;;;5136389;27;20224;-67
2021/12/07 00:08:40;;;;;;;153.90;44.23;;;;;;;;;;5136243;27;20197;-67
2021/12/07 00:11:09;;;;;;;135.97;44.97;;;;;;;;;;5135894;27;20220;-68
2021/12/07 00:13:39;;;;;;;141.20;41.90;;;;;;;;;;5136355;27;20197;-67
2021/12/07 00:16:10;;;;;;;145.20;43.20;;;;;;;;;;5136060;27;20186;-67
2021/12/07 00:18:38;;;;;;;143.97;42.33;;;;;;;;;;5136155;27;20197;-68
2021/12/07 00:21:07;;;;;;;139.40;45.23;;;;;;;;;;5135959;27;20201;-67
2021/12/07 00:23:36;;;;;;;157.63;45.47;;;;;;;;;;5136180;27;20193;-67
2021/12/07 00:26:05;;;;;;;149.33;45.73;;;;;;;;;;5136006;27;20193;-67
2021/12/07 00:28:33;;;;;;;135.50;41.07;;;;;;;;;;5136049;27;20205;-67
2021/12/07 00:31:10;;;;;;;138.80;43.60;;;;;;;;;;5135884;27;20205;-67
2021/12/07 00:33:48;;;;;;;139.00;43.30;;;;;;;;;;5135919;27;20644;-67
2021/12/07 00:36:16;;;;;;;132.20;41.37;;;;;;;;;;5135761;27;20189;-67
2021/12/07 00:38:44;;;;;;;122.37;36.97;;;;;;;;;;5134421;27;20197;-67
2021/12/07 00:41:11;;;;;;;138.67;44.50;;;;;;;;;;5134442;27;20300;-68
2021/12/07 00:43:39;;;;;;;140.87;40.17;;;;;;;;;;5135719;27;20198;-67
2021/12/07 00:46:08;;;;;;;127.50;40.97;;;;;;;;;;5135637;27;20258;-67
2021/12/07 00:48:36;;;;;;;141.77;41.00;;;;;;;;;;5135367;27;20275;-67
2021/12/07 00:51:04;;;;;;;140.07;41.23;;;;;;;;;;5134312;27;20193;-68
2021/12/07 00:53:32;;;;;;;122.07;37.80;;;;;;;;;;5135510;27;20207;-67
2021/12/07 00:56:03;;;;;;;127.87;39.60;;;;;;;;;;5134364;27;20250;-67
2021/12/07 00:58:31;;;;;;;119.43;36.07;;;;;;;;;;5135306;27;20247;-67
2021/12/07 01:01:11;;;;;;;139.27;39.40;;;;;;;;;;5134876;27;20538;-67
2021/12/07 01:03:39;;;;;;;77.10;24.87;;;;;;;;;;5133787;27;20550;-68
2021/12/07 01:24:43;;;;;;;132.93;39.57;;;;;;;;;;5133773;27;20186;-67
2021/12/07 01:27:17;;;;;;;94.33;28.90;;;;;;;;;;5134681;27;20207;-67
2021/12/07 01:29:56;;;;;;;111.53;36.43;;;;;;;;;;5133462;27;20364;-67
2021/12/07 01:32:39;;;;;;;121.73;38.60;;;;;;;;;;5133583;27;20576;-67
2021/12/07 01:40:54;;;;;;;105.13;32.30;;;;;;;;;;5125807;27;20213;-67
2021/12/07 01:59:42;;;;;;;147.47;41.27;;;;;;;;;;5118228;27;20185;-67
2021/12/07 02:02:12;;;;;;;161.30;45.03;;;;;;;;;;5133138;27;20231;-67
2021/12/07 02:04:40;;;;;;;155.00;43.57;;;;;;;;;;5132723;27;20686;-67
2021/12/07 02:07:11;;;;;;;133.20;38.03;;;;;;;;;;5132569;27;20656;-68
2021/12/07 02:09:44;;;;;;;171.17;44.87;;;;;;;;;;5132990;27;20212;-68
2021/12/07 02:12:13;;;;;;;123.77;33.93;;;;;;;;;;5132636;27;20279;-67
2021/12/07 02:14:42;;;;;;;133.30;38.70;;;;;;;;;;5132920;27;20204;-67
2021/12/07 02:17:13;;;;;;;169.73;46.47;;;;;;;;;;5132665;27;20248;-68
2021/12/07 02:19:43;;;;;;;134.57;38.13;;;;;;;;;;5132640;27;20189;-68
2021/12/07 02:22:11;;;;;;;162.57;41.10;;;;;;;;;;5133967;27;20213;-67
2021/12/07 02:24:45;;;;;;;122.97;31.53;;;;;;;;;;5132650;27;20180;-68
2021/12/07 02:27:13;;;;;;;123.17;36.90;;;;;;;;;;5131786;27;20197;-68
2021/12/07 02:29:41;;;;;;;163.63;43.50;;;;;;;;;;5132521;28;20279;-67
2021/12/07 02:32:09;;;;;;;134.17;37.67;;;;;;;;;;5132462;28;20644;-67
2021/12/07 02:34:42;;;;;;;119.20;30.87;;;;;;;;;;5132500;28;20204;-67
2021/12/07 02:37:11;;;;;;;130.23;40.97;;;;;;;;;;5132538;28;20205;-68
2021/12/07 02:39:40;;;;;;;151.50;38.70;;;;;;;;;;5133917;27;20240;-68
2021/12/07 02:42:09;;;;;;;152.23;41.30;;;;;;;;;;5133676;27;20590;-68
2021/12/07 02:44:36;;;;;;;152.23;42.00;;;;;;;;;;5132381;28;20197;-67
2021/12/07 02:47:10;;;;;;;141.93;42.40;;;;;;;;;;5132015;28;20190;-67
2021/12/07 02:49:37;;;;;;;158.30;43.17;;;;;;;;;;5133673;28;20193;-67
2021/12/07 02:52:06;;;;;;;136.40;38.40;;;;;;;;;;5132303;28;20616;-67
2021/12/07 02:54:42;;;;;;;124.53;36.20;;;;;;;;;;5132294;28;20185;-67
2021/12/07 02:57:12;;;;;;;134.50;37.67;;;;;;;;;;5132348;28;20185;-67
2021/12/07 02:59:48;;;;;;;130.13;34.53;;;;;;;;;;5132444;28;20262;-68
2021/12/07 03:02:18;;;;;;;128.40;37.27;;;;;;;;;;5133465;27;20188;-68
2021/12/07 03:05:18;;;;;;;127.83;37.57;;;;;;;;;;5133592;27;20284;-67
2021/12/07 03:26:41;;;;;;;59.47;20.73;;;;;;;;;;5132247;28;20197;-67
2021/12/07 03:29:09;;;;;;;133.17;33.57;;;;;;;;;;5132038;28;20204;-67
2021/12/07 03:31:36;;;;;;;121.67;31.43;;;;;;;;;;5131930;28;20197;-67
2021/12/07 03:34:04;;;;;;;73.63;21.77;;;;;;;;;;5132111;28;20296;-68
2021/12/07 03:36:34;;;;;;;172.87;44.03;;;;;;;;;;5131893;28;20178;-67
2021/12/07 03:39:04;;;;;;;168.13;43.87;;;;;;;;;;5133177;27;20229;-67
2021/12/07 03:41:32;;;;;;;122.10;36.03;;;;;;;;;;5135405;27;20614;-67
2021/12/07 03:44:00;;;;;;;56.10;17.90;;;;;;;;;;5135572;27;20198;-68
2021/12/07 03:46:29;;;;;;;141.80;40.00;;;;;;;;;;5135393;27;20288;-68
2021/12/07 03:48:57;;;;;;;131.00;34.83;;;;;;;;;;5135617;27;20189;-67
2021/12/07 03:51:24;;;;;;;140.77;39.17;;;;;;;;;;5135439;27;20204;-67
2021/12/07 03:53:54;;;;;;;154.60;40.43;;;;;;;;;;5135551;27;20189;-68
2021/12/07 03:56:22;;;;;;;138.03;36.77;;;;;;;;;;5135156;27;20208;-67
2021/12/07 03:58:51;;;;;;;172.00;43.97;;;;;;;;;;5135161;27;20217;-68
2021/12/07 04:01:23;;;;;;;163.43;39.27;;;;;;;;;;5134975;27;20648;-67
2021/12/07 04:03:52;;;;;;;156.80;39.90;;;;;;;;;;5135350;27;20194;-67
2021/12/07 04:06:21;;;;;;;157.70;40.77;;;;;;;;;;5136430;27;20209;-67
2021/12/07 04:08:49;;;;;;;65.30;20.23;;;;;;;;;;5135263;27;20224;-67
2021/12/07 04:11:17;;;;;;;157.57;41.73;;;;;;;;;;5134865;27;20217;-67
2021/12/07 04:13:45;;;;;;;136.07;36.63;;;;;;;;;;5136273;27;20185;-67
2021/12/07 04:16:17;;;;;;;120.40;34.20;;;;;;;;;;5135119;27;20185;-67
2021/12/07 04:18:48;;;;;;;68.37;19.03;;;;;;;;;;5135033;27;20217;-68
2021/12/07 04:21:16;;;;;;;128.77;36.13;;;;;;;;;;5134739;27;20527;-67
2021/12/07 04:23:43;;;;;;;69.10;18.33;;;;;;;;;;5136209;27;20208;-68
2021/12/07 04:26:12;;;;;;;149.23;39.40;;;;;;;;;;5135841;27;20201;-68
2021/12/07 04:28:40;;;;;;;131.73;35.97;;;;;;;;;;5134900;27;20663;-68
2021/12/07 04:31:08;;;;;;;132.43;35.43;;;;;;;;;;5135553;27;20250;-68
2021/12/07 04:33:36;;;;;;;135.10;36.87;;;;;;;;;;5135916;27;20262;-67
2021/12/07 04:36:09;;;;;;;118.50;31.33;;;;;;;;;;5135498;27;20617;-67
2021/12/07 04:38:37;;;;;;;105.60;31.40;;;;;;;;;;5135829;27;20235;-67
2021/12/07 04:41:05;;;;;;;117.63;34.63;;;;;;;;;;5135566;27;20193;-68
2021/12/07 04:43:34;;;;;;;128.30;38.33;;;;;;;;;;5135731;27;20197;-68
2021/12/07 04:46:30;;;;;;;116.73;34.50;;;;;;;;;;5135486;27;20197;-68
2021/12/07 04:59:31;;;;;;;128.70;34.20;;;;;;;;;;5135137;27;20205;-67
2021/12/07 05:01:59;;;;;;;124.93;34.07;;;;;;;;;;5128742;27;20673;-68
2021/12/07 05:04:30;;;;;;;131.63;32.60;;;;;;;;;;5124918;27;20217;-68
2021/12/07 05:07:11;;;;;;;136.97;37.30;;;;;;;;;;5132964;27;20232;-68
2021/12/07 05:14:43;;;;;;;114.57;33.87;;;;;;;;;;5127302;27;20640;-68
2021/12/07 05:38:41;;;;;;;114.60;31.00;;;;;;;;;;5133913;27;20252;-69
2021/12/07 05:41:09;;;;;;;122.03;34.20;;;;;;;;;;5132394;27;20719;-66
2021/12/07 05:43:37;;;;;;;111.40;31.87;;;;;;;;;;5133814;27;20229;-67
2021/12/07 05:46:04;;;;;;;95.57;29.40;;;;;;;;;;5133595;27;20232;-68
2021/12/07 05:48:32;;;;;;;104.80;28.27;;;;;;;;;;5132668;27;20286;-67
2021/12/07 05:50:59;;;;;;;120.67;34.50;;;;;;;;;;5133963;27;20247;-67
2021/12/07 05:53:27;;;;;;;121.73;35.10;;;;;;;;;;5129484;27;20584;-67
2021/12/07 05:55:54;;;;;;;86.73;25.40;;;;;;;;;;5121604;27;20241;-67
2021/12/07 05:58:22;;;;;;;89.33;27.20;;;;;;;;;;5117383;27;20266;-69
2021/12/07 06:00:50;;;;;;;96.60;29.77;;;;;;;;;;5112641;28;20225;-69
2021/12/07 06:03:17;;;;;;;113.07;30.07;;;;;;;;;;5111739;27;20252;-68
2021/12/07 06:05:45;;;;;;;80.07;24.23;;;;;;;;;;5112963;28;20250;-68
2021/12/07 06:08:12;;;;;;;42.07;13.03;;;;;;;;;;5112400;27;20290;-70
2021/12/07 06:10:40;;;;;;;127.20;34.63;;;;;;;;;;5112810;28;20218;-67
2021/12/07 06:13:07;;;;;;;128.00;34.30;;;;;;;;;;5117478;27;20241;-69
2021/12/07 06:15:38;;;;;;;118.73;32.67;;;;;;;;;;5123086;27;20214;-66
2021/12/07 06:18:05;;;;;;;102.30;26.37;;;;;;;;;;5120619;27;20225;-67
2021/12/07 06:20:33;;;;;;;118.93;32.73;;;;;;;;;;5122487;27;20282;-69
2021/12/07 06:23:12;;;;;;;87.37;24.20;;;;;;;;;;5120688;27;20213;-70
2021/12/07 06:25:40;;;;;;;100.73;29.97;;;;;;;;;;5121137;27;20209;-68
2021/12/07 06:28:07;;;;;;;101.40;30.10;;;;;;;;;;5121640;27;20249;-69
2021/12/07 06:30:42;;;;;;;114.37;32.43;;;;;;;;;;5118261;27;20218;-68
2021/12/07 06:33:10;;;;;;;116.07;28.70;;;;;;;;;;5111497;27;20218;-68
2021/12/07 06:35:37;;;;;;;108.13;32.40;;;;;;;;;;5112238;28;20701;-68
2021/12/07 06:38:05;;;;;;;126.37;36.87;;;;;;;;;;5111909;27;20280;-69
2021/12/07 06:40:32;;;;;;;123.00;32.77;;;;;;;;;;5111475;28;20229;-69
2021/12/07 06:43:00;;;;;;;93.77;27.63;;;;;;;;;;5111174;28;20251;-68
2021/12/07 06:45:29;;;;;;;140.57;35.47;;;;;;;;;;5119484;28;20229;-68
2021/12/07 06:47:57;;;;;;;88.93;24.33;;;;;;;;;;5118894;28;20216;-68
2021/12/07 06:50:25;;;;;;;145.50;37.73;;;;;;;;;;5120321;27;20214;-68
2021/12/07 06:52:53;;;;;;;127.00;36.63;;;;;;;;;;5120037;27;20620;-68
2021/12/07 06:55:21;;;;;;;127.80;33.20;;;;;;;;;;5119649;27;20209;-68
2021/12/07 06:57:48;;;;;;;133.70;35.70;;;;;;;;;;5121418;27;20231;-68
2021/12/07 07:00:17;;;;;;;122.80;36.27;;;;;;;;;;5131468;27;20233;-68
2021/12/07 07:02:44;;;;;;;98.07;29.53;;;;;;;;;;5126723;27;20397;-68
2021/12/07 07:05:14;;;;;;;137.00;37.13;;;;;;;;;;5122042;28;20190;-67
2021/12/07 07:07:42;;;;;;;137.80;39.33;;;;;;;;;;5104634;28;20208;-68
2021/12/07 07:10:13;;;;;;;126.40;33.30;;;;;;;;;;5121390;28;20271;-67
2021/12/07 07:12:40;;;;;;;137.60;37.00;;;;;;;;;;5119903;27;20308;-67
2021/12/07 07:15:09;;;;;;;125.27;29.50;;;;;;;;;;5124274;27;20676;-68
2021/12/07 07:17:37;;;;;;;156.03;35.23;;;;;;;;;;5124433;27;20208;-68
2021/12/07 07:20:06;;;;;;;168.03;38.07;;;;;;;;;;5124242;27;20276;-68
2021/12/07 07:22:34;;;;;;;167.50;41.03;;;;;;;;;;5125484;27;20193;-68
2021/12/07 07:25:02;;;;;;;153.63;37.87;;;;;;;;;;5124628;27;20653;-69
2021/12/07 07:27:30;;;;;;;167.90;44.10;;;;;;;;;;5124614;27;20189;-69
2021/12/07 07:29:58;;;;;;;138.97;38.87;;;;;;;;;;5124506;27;20214;-69
2021/12/07 07:32:25;;;;;;;143.67;40.10;;;;;;;;;;5125581;27;20220;-69
2021/12/07 07:34:52;;;;;;;142.70;39.83;;;;;;;;;;5126157;27;20207;-69
2021/12/07 07:37:20;;;;;;;158.90;42.97;;;;;;;;;;5124447;27;20201;-69
2021/12/07 07:39:48;;;;;;;137.87;38.17;;;;;;;;;;5124625;27;20204;-68
2021/12/07 07:42:16;;;;;;;131.80;36.10;;;;;;;;;;5123609;27;20589;-68
2021/12/07 07:45:07;;;;;;;124.93;33.37;;;;;;;;;;5115848;28;20576;-68
2021/12/07 07:47:35;;;;;;;110.97;34.20;;;;;;;;;;5116287;27;20657;-68
2021/12/07 07:50:04;;;;;;;116.27;32.97;;;;;;;;;;5135887;27;20277;-68
2021/12/07 07:52:32;;;;;;;107.27;34.30;;;;;;;;;;5126859;27;20197;-68
2021/12/07 07:54:59;;;;;;;120.20;35.03;;;;;;;;;;5144556;27;20201;-66
2021/12/07 07:57:28;;;;;;;133.60;36.30;;;;;;;;;;5142990;27;20564;-67
2021/12/07 07:59:55;;;;;;;137.33;33.83;;;;;;;;;;5136119;27;20204;-67
2021/12/07 08:02:23;;;;;;;144.10;41.13;;;;;;;;;;5135835;27;20216;-67
2021/12/07 08:04:51;;;;;;;143.60;37.93;;;;;;;;;;5135095;27;20206;-67
2021/12/07 08:07:18;;;;;;;143.90;41.60;;;;;;;;;;5136069;27;20201;-66
2021/12/07 08:09:46;;;;;;;154.50;44.17;;;;;;;;;;5135738;27;20220;-67
2021/12/07 08:12:13;;;;;;;143.50;38.87;;;;;;;;;;5134008;27;20865;-68
2021/12/07 08:14:41;;;;;;;134.57;40.17;;;;;;;;;;5136203;27;20201;-68
2021/12/07 08:17:08;;;;;;;122.93;35.70;;;;;;;;;;5136209;27;20208;-68
2021/12/07 08:19:36;;;;;;;126.07;35.53;;;;;;;;;;5136176;27;20262;-67
2021/12/07 08:22:04;;;;;;;120.73;35.43;;;;;;;;;;5134636;27;20201;-68
2021/12/07 08:24:34;;;;;;;117.73;33.37;;;;;;;;;;5133961;27;20242;-67
2021/12/07 08:27:01;;;;;;;127.27;35.40;;;;;;;;;;5132180;27;20194;-68
2021/12/07 08:29:48;;;;;;;136.93;43.20;;;;;;;;;;5123719;27;20217;-69
2021/12/07 08:32:16;;;;;;;112.77;35.97;;;;;;;;;;5126095;27;20228;-68
2021/12/07 08:34:43;;;;;;;117.07;33.30;;;;;;;;;;5122566;27;20555;-68
2021/12/07 08:37:11;;;;;;;107.77;28.23;;;;;;;;;;5125702;27;20198;-68
2021/12/07 08:39:39;;;;;;;96.70;31.87;;;;;;;;;;5125877;27;20217;-68
2021/12/07 08:42:06;;;;;;;122.17;36.27;;;;;;;;;;5126632;27;20277;-68
2021/12/07 08:44:34;;;;;;;97.20;30.53;;;;;;;;;;5124823;27;20554;-68
2021/12/07 08:47:01;;;;;;;90.33;29.70;;;;;;;;;;5120003;27;20215;-68
2021/12/07 08:49:29;;;;;;;86.73;31.90;;;;;;;;;;5124268;27;20615;-68
2021/12/07 08:51:56;;;;;;;89.33;30.00;;;;;;;;;;5128146;27;20190;-68
2021/12/07 08:59:48;;;;;;;96.37;33.07;;;;;;;;;;5123210;27;20194;-67
2021/12/07 09:02:19;;;;;;;111.83;34.37;;;;;;;;;;5134642;27;20205;-69
2021/12/07 09:04:47;;;;;;;104.47;34.10;;;;;;;;;;5122912;27;20187;-69
2021/12/07 09:07:15;;;;;;;131.07;43.27;;;;;;;;;;5122456;27;20234;-68
2021/12/07 09:09:43;;;;;;;94.20;32.10;;;;;;;;;;5116828;27;20313;-68
2021/12/07 09:12:12;;;;;;;109.50;34.33;;;;;;;;;;5114249;28;20236;-68
2021/12/07 09:14:42;;;;;;;97.10;33.30;;;;;;;;;;5114513;28;20201;-68
2021/12/07 09:17:12;;;;;;;103.90;33.20;;;;;;;;;;5114516;28;20186;-68
2021/12/07 09:19:40;;;;;;;112.87;36.20;;;;;;;;;;5114539;28;20547;-67
2021/12/07 09:22:08;;;;;;;66.97;22.90;;;;;;;;;;5114427;28;20246;-68
2021/12/07 09:24:55;;;;;;;104.83;34.30;;;;;;;;;;5114110;28;20217;-68
2021/12/07 09:27:22;;;;;;;107.37;34.93;;;;;;;;;;5114065;28;20205;-68
2021/12/07 09:29:50;;;;;;;106.43;34.00;;;;;;;;;;5114171;28;20276;-68
2021/12/07 09:32:18;;;;;;;115.17;35.50;;;;;;;;;;5113982;28;20231;-68
2021/12/07 09:34:45;;;;;;;108.33;33.90;;;;;;;;;;5113896;28;20240;-68
2021/12/07 09:37:13;;;;;;;125.47;40.23;;;;;;;;;;5113946;28;20209;-68
2021/12/07 09:39:40;;;;;;;101.47;31.73;;;;;;;;;;5114124;28;20194;-68
2021/12/07 09:42:07;;;;;;;104.70;34.70;;;;;;;;;;5114021;28;20210;-68
2021/12/07 09:44:34;;;;;;;33.13;12.90;;;;;;;;;;5113947;28;20234;-68
2021/12/07 09:47:02;;;;;;;101.13;32.97;;;;;;;;;;5114085;28;20237;-68
2021/12/07 09:49:30;;;;;;;110.60;37.23;;;;;;;;;;5113629;28;20255;-68
2021/12/07 09:51:57;;;;;;;101.23;33.60;;;;;;;;;;5113874;28;20198;-68
2021/12/07 09:54:25;;;;;;;114.80;38.83;;;;;;;;;;5113592;28;20202;-68
2021/12/07 09:56:52;;;;;;;96.50;29.97;;;;;;;;;;5113866;28;20198;-68
2021/12/07 09:59:19;;;;;;;114.80;39.63;;;;;;;;;;5113604;27;20458;-68
2021/12/07 10:01:47;;;;;;;112.17;37.93;;;;;;;;;;5120892;27;20277;-68
2021/12/07 10:04:15;;;;;;;114.50;39.80;;;;;;;;;;5121679;27;20194;-68
2021/12/07 10:06:48;;;;;;;116.50;38.37;;;;;;;;;;5121512;27;20196;-68
2021/12/07 10:09:15;;;;;;;31.73;11.47;;;;;;;;;;5121255;27;20210;-68
2021/12/07 10:11:42;;;;;;;103.80;35.10;;;;;;;;;;5122549;27;20221;-68
2021/12/07 10:14:10;;;;;;;111.90;37.23;;;;;;;;;;5121085;27;20564;-68
2021/12/07 10:16:45;;;;;;;84.27;28.90;;;;;;;;;;5122339;27;20189;-68
2021/12/07 10:19:18;;;;;;;120.50;40.43;;;;;;;;;;5120415;27;20255;-68
2021/12/07 10:21:59;;;;;;;119.37;38.07;;;;;;;;;;5119764;27;20194;-68
2021/12/07 10:24:37;;;;;;;110.03;40.93;;;;;;;;;;5133070;27;20206;-68
2021/12/07 10:27:08;;;;;;;102.43;35.33;;;;;;;;;;5132853;27;20197;-70
2021/12/07 10:29:35;;;;;;;107.37;36.80;;;;;;;;;;5132688;28;20213;-74
2021/12/07 10:32:07;;;;;;;118.80;37.90;;;;;;;;;;5131723;28;20204;-72
2021/12/07 10:34:37;;;;;;;103.73;32.77;;;;;;;;;;5132503;27;20222;-70
2021/12/07 10:37:11;;;;;;;89.00;28.30;;;;;;;;;;5132513;27;20193;-74
2021/12/07 10:39:47;;;;;;;72.80;27.87;;;;;;;;;;5114863;28;20182;-73
2021/12/07 10:42:27;;;;;;;96.37;36.13;;;;;;;;;;5131512;28;20636;-72
2021/12/07 10:45:05;;;;;;;98.27;35.80;;;;;;;;;;5115191;28;20636;-72
2021/12/07 10:47:33;;;;;;;99.80;38.37;;;;;;;;;;5133230;27;20193;-73
2021/12/07 10:50:05;;;;;;;93.47;32.60;;;;;;;;;;5135647;27;20221;-74
2021/12/07 10:52:42;;;;;;;96.57;34.23;;;;;;;;;;5137020;27;20189;-73
2021/12/07 10:55:16;;;;;;;99.10;35.07;;;;;;;;;;5135691;27;20190;-73
2021/12/07 10:57:44;;;;;;;101.37;32.70;;;;;;;;;;5135785;27;20534;-73
2021/12/07 11:00:27;;;;;;;96.53;34.33;;;;;;;;;;5116590;27;20190;-73
2021/12/07 11:02:59;;;;;;;107.50;38.17;;;;;;;;;;5135769;27;20303;-77
2021/12/07 11:05:50;;;;;;;88.67;32.60;;;;;;;;;;5088208;27;20217;-72
2021/12/07 11:08:23;;;;;;;97.00;32.17;;;;;;;;;;5122906;27;20309;-73
2021/12/07 11:10:51;;;;;;;101.93;33.07;;;;;;;;;;5123153;27;20236;-76
2021/12/07 11:13:23;;;;;;;100.10;31.13;;;;;;;;;;5126399;27;20221;-72
2021/12/07 11:16:03;;;;;;;87.20;33.97;;;;;;;;;;5128457;27;20228;-77
2021/12/07 11:18:33;;;;;;;50.87;18.07;;;;;;;;;;5133498;27;20266;-71
2021/12/07 11:21:03;;;;;;;86.03;30.13;;;;;;;;;;5123659;27;20222;-73
2021/12/07 11:23:35;;;;;;;87.40;30.27;;;;;;;;;;5124424;27;20706;-74
2021/12/07 11:31:34;;;;;;;92.90;32.10;;;;;;;;;;5118134;27;20700;-71
2021/12/07 11:34:12;;;;;;;92.93;31.17;;;;;;;;;;5123282;27;20266;-79
2021/12/07 11:36:52;;;;;;;101.00;38.23;;;;;;;;;;5130086;27;20259;-70
2021/12/07 11:39:31;;;;;;;81.87;30.77;;;;;;;;;;5124510;27;20259;-76
2021/12/07 11:42:00;;;;;;;85.37;30.87;;;;;;;;;;5124210;27;20228;-75
2021/12/07 11:44:29;;;;;;;83.20;32.00;;;;;;;;;;5123249;27;20704;-76
2021/12/07 11:46:58;;;;;;;89.57;31.47;;;;;;;;;;5131412;27;20276;-72
2021/12/07 11:49:30;;;;;;;43.27;16.73;;;;;;;;;;5136050;27;20225;-79
2021/12/07 11:52:01;;;;;;;69.30;23.27;;;;;;;;;;5135642;27;20240;-80
2021/12/07 11:54:33;;;;;;;63.60;23.70;;;;;;;;;;5136558;27;20215;-80
2021/12/07 11:57:02;;;;;;;75.30;25.67;;;;;;;;;;5135302;27;20222;-79
2021/12/07 11:59:29;;;;;;;84.67;30.73;;;;;;;;;;5125315;27;20219;-80
2021/12/07 12:01:57;;;;;;;83.03;31.93;;;;;;;;;;5131709;27;20193;-75
2021/12/07 12:04:25;;;;;;;76.57;29.33;;;;;;;;;;5124319;27;20251;-81
2021/12/07 12:06:56;;;;;;;81.93;32.40;;;;;;;;;;5123055;27;20536;-80
2021/12/07 12:09:25;;;;;;;81.27;31.60;;;;;;;;;;5122739;27;20189;-80
2021/12/07 12:12:20;;;;;;;81.33;29.80;;;;;;;;;;5123942;27;20286;-80
2021/12/07 12:15:19;;;;;;;86.87;32.20;;;;;;;;;;5123876;27;20194;-81
2021/12/07 12:18:14;;;;;;;78.13;28.63;;;;;;;;;;5123955;27;20190;-78
2021/12/07 12:20:56;;;;;;;74.43;26.13;;;;;;;;;;5125732;27;20252;-79
2021/12/07 12:23:38;;;;;;;78.07;30.40;;;;;;;;;;5123800;27;20231;-77
2021/12/07 12:26:08;;;;;;;73.77;27.33;;;;;;;;;;5122637;27;20182;-80
2021/12/07 12:28:42;;;;;;;82.03;29.67;;;;;;;;;;5123367;27;20601;-78
2021/12/07 12:31:12;;;;;;;76.97;28.13;;;;;;;;;;5124351;27;20221;-80
2021/12/07 12:33:46;;;;;;;86.20;33.70;;;;;;;;;;5124179;27;20254;-77
2021/12/07 12:36:14;;;;;;;77.83;30.67;;;;;;;;;;5123613;27;20182;-77
2021/12/07 12:38:55;;;;;;;78.43;31.53;;;;;;;;;;5121185;27;20243;-77
2021/12/07 12:41:23;;;;;;;67.80;23.77;;;;;;;;;;5124329;27;20190;-77
2021/12/07 12:43:56;;;;;;;89.70;32.50;;;;;;;;;;5122831;27;20190;-77
2021/12/07 12:46:27;;;;;;;75.50;28.57;;;;;;;;;;5123112;27;20238;-78
2021/12/07 12:49:06;;;;;;;68.30;26.03;;;;;;;;;;5124631;27;20182;-77
2021/12/07 12:51:49;;;;;;;69.80;28.30;;;;;;;;;;5123024;27;20222;-78
2021/12/07 12:54:18;;;;;;;73.97;27.90;;;;;;;;;;5123623;27;20666;-78
2021/12/07 12:56:46;;;;;;;64.37;25.40;;;;;;;;;;5124847;27;20244;-77
2021/12/07 12:59:14;;;;;;;52.33;18.87;;;;;;;;;;5125046;27;20197;-77
2021/12/07 13:01:43;;;;;;;74.93;27.00;;;;;;;;;;5113302;27;20711;-80
2021/12/07 13:04:17;;;;;;;78.27;29.30;;;;;;;;;;5118963;27;20610;-80
2021/12/07 13:06:53;;;;;;;80.47;29.77;;;;;;;;;;5120913;27;20241;-79
2021/12/07 13:09:24;;;;;;;68.73;26.70;;;;;;;;;;5121013;27;20235;-75
2021/12/07 13:11:59;;;;;;;66.90;26.13;;;;;;;;;;5118474;27;20240;-76
2021/12/07 13:14:28;;;;;;;68.60;26.30;;;;;;;;;;5122928;27;20248;-74
2021/12/07 13:17:01;;;;;;;70.23;28.10;;;;;;;;;;5120626;27;20255;-72
2021/12/07 13:19:30;;;;;;;74.93;29.07;;;;;;;;;;5122606;27;20218;-72
2021/12/07 13:22:03;;;;;;;73.67;30.27;;;;;;;;;;5122490;27;20234;-75
2021/12/07 13:24:34;;;;;;;67.53;26.70;;;;;;;;;;5122274;27;20222;-76
2021/12/07 13:27:10;;;;;;;63.27;26.30;;;;;;;;;;5125113;27;20226;-75
2021/12/07 13:29:47;;;;;;;65.97;28.67;;;;;;;;;;5123018;27;20233;-72
2021/12/07 13:32:15;;;;;;;58.37;22.80;;;;;;;;;;5123200;27;20688;-69
2021/12/07 13:34:42;;;;;;;74.30;29.13;;;;;;;;;;5122897;27;20217;-67
2021/12/07 13:37:12;;;;;;;59.77;24.37;;;;;;;;;;5121406;27;20219;-67
2021/12/07 13:39:48;;;;;;;50.73;23.87;;;;;;;;;;5124908;27;20588;-68
2021/12/07 13:42:18;;;;;;;61.00;27.40;;;;;;;;;;5124443;27;20278;-74
2021/12/07 13:44:49;;;;;;;54.50;22.30;;;;;;;;;;5124010;27;20229;-71
2021/12/07 13:47:19;;;;;;;50.70;23.47;;;;;;;;;;5112047;27;20294;-76
2021/12/07 13:49:50;;;;;;;47.53;23.00;;;;;;;;;;5133618;27;20221;-75
2021/12/07 13:52:20;;;;;;;58.40;26.67;;;;;;;;;;5133216;27;20238;-76
2021/12/07 13:54:50;;;;;;;53.67;22.80;;;;;;;;;;5133471;27;20277;-76
2021/12/07 13:57:21;;;;;;;46.70;23.43;;;;;;;;;;5119614;27;20221;-76
2021/12/07 13:59:59;;;;;;;44.30;20.93;;;;;;;;;;5133565;27;20213;-76
2021/12/07 14:02:27;;;;;;;53.00;24.83;;;;;;;;;;5131741;27;20236;-76
2021/12/07 14:05:10;;;;;;;49.17;21.70;;;;;;;;;;5132416;27;20227;-76
2021/12/07 14:07:38;;;;;;;49.77;22.40;;;;;;;;;;5133392;27;20298;-75
2021/12/07 14:10:16;;;;;;;49.50;22.90;;;;;;;;;;5133533;27;20222;-76
2021/12/07 14:12:45;;;;;;;47.40;21.13;;;;;;;;;;5132781;27;20240;-75
2021/12/07 14:15:17;;;;;;;43.73;19.20;;;;;;;;;;5133413;27;20224;-77
2021/12/07 14:17:56;;;;;;;44.83;20.67;;;;;;;;;;5132361;27;20228;-77
2021/12/07 14:20:57;;;;;;;40.67;20.53;;;;;;;;;;5133209;27;20221;-76
2021/12/07 14:23:27;;;;;;;45.67;23.37;;;;;;;;;;5131155;27;20244;-75
2021/12/07 14:25:59;;;;;;;42.60;21.57;;;;;;;;;;5132026;27;20216;-72
2021/12/07 14:28:28;;;;;;;43.70;21.03;;;;;;;;;;5133251;27;20320;-74
2021/12/07 14:31:02;;;;;;;44.53;23.37;;;;;;;;;;5131478;28;20602;-73
2021/12/07 14:33:30;;;;;;;38.77;18.57;;;;;;;;;;5133008;27;20704;-73
2021/12/07 14:36:00;;;;;;;44.33;20.47;;;;;;;;;;5132529;28;20278;-71
2021/12/07 14:38:32;;;;;;;34.57;14.67;;;;;;;;;;5132666;27;20312;-75
2021/12/07 14:41:12;;;;;;;45.33;20.63;;;;;;;;;;5132921;27;20225;-71
2021/12/07 14:43:41;;;;;;;34.53;17.23;;;;;;;;;;5132761;27;20237;-72
2021/12/07 14:46:12;;;;;;;43.63;20.40;;;;;;;;;;5119876;28;20217;-72
2021/12/07 14:48:42;;;;;;;39.80;20.37;;;;;;;;;;5122749;27;20323;-71
2021/12/07 14:51:16;;;;;;;40.67;19.00;;;;;;;;;;5122573;28;20231;-71
2021/12/07 14:53:47;;;;;;;39.40;19.90;;;;;;;;;;5121467;27;20270;-70
2021/12/07 14:56:16;;;;;;;38.33;18.27;;;;;;;;;;5120730;28;20292;-70
2021/12/07 14:58:46;;;;;;;44.00;21.33;;;;;;;;;;5120636;27;20315;-73
2021/12/07 15:01:19;;;;;;;47.30;20.63;;;;;;;;;;5120477;28;20781;-73
2021/12/07 15:03:52;;;;;;;36.60;17.30;;;;;;;;;;5102095;28;20225;-69
2021/12/07 15:06:22;;;;;;;32.93;15.03;;;;;;;;;;5123266;28;20727;-71
2021/12/07 15:08:50;;;;;;;34.17;15.37;;;;;;;;;;5119163;28;20785;-71
2021/12/07 15:11:57;;;;;;;43.47;17.70;;;;;;;;;;5121012;28;20579;-70
2021/12/07 15:14:27;;;;;;;37.83;17.67;;;;;;;;;;5120746;28;20233;-72
2021/12/07 15:17:00;;;;;;;37.90;17.60;;;;;;;;;;5120453;28;20263;-72
2021/12/07 15:19:28;;;;;;;39.87;18.30;;;;;;;;;;5120360;27;20222;-71
2021/12/07 15:21:57;;;;;;;40.90;19.37;;;;;;;;;;5103998;28;20209;-71
2021/12/07 15:24:33;;;;;;;40.80;18.80;;;;;;;;;;5122698;27;20261;-71
2021/12/07 15:27:02;;;;;;;44.73;21.30;;;;;;;;;;5120564;28;20220;-71
2021/12/07 15:29:33;;;;;;;43.33;18.67;;;;;;;;;;5118030;28;20266;-72
2021/12/07 15:32:05;;;;;;;41.70;17.67;;;;;;;;;;5120071;28;20256;-69
2021/12/07 15:34:39;;;;;;;36.27;18.53;;;;;;;;;;5107437;27;20619;-73
2021/12/07 15:37:11;;;;;;;37.47;16.30;;;;;;;;;;5108175;27;20241;-77
2021/12/07 15:39:50;;;;;;;39.37;17.40;;;;;;;;;;5125353;27;20321;-75
2021/12/07 15:42:25;;;;;;;41.97;19.37;;;;;;;;;;5123213;27;20350;-74
2021/12/07 15:44:56;;;;;;;39.17;19.47;;;;;;;;;;5122378;27;20782;-72
2021/12/07 15:47:35;;;;;;;36.80;16.63;;;;;;;;;;5125738;27;20608;-70
2021/12/07 15:50:11;;;;;;;39.30;18.77;;;;;;;;;;5124428;27;20233;-75
2021/12/07 15:52:51;;;;;;;27.67;12.27;;;;;;;;;;5124216;27;20218;-71
2021/12/07 15:55:25;;;;;;;39.57;17.60;;;;;;;;;;5123522;27;20222;-70
2021/12/07 15:57:59;;;;;;;39.47;17.33;;;;;;;;;;5124510;27;20213;-70
2021/12/07 16:00:36;;;;;;;34.07;16.73;;;;;;;;;;5125083;27;20217;-69
2021/12/07 16:03:07;;;;;;;39.87;19.27;;;;;;;;;;5122854;27;20228;-70
2021/12/07 16:05:52;;;;;;;45.23;20.40;;;;;;;;;;5122008;27;20620;-72
2021/12/07 16:08:25;;;;;;;42.37;21.07;;;;;;;;;;5124560;27;20224;-72
2021/12/07 16:10:56;;;;;;;44.63;20.77;;;;;;;;;;5125230;27;20230;-72
2021/12/07 16:13:32;;;;;;;42.87;18.60;;;;;;;;;;5121732;27;20241;-74
2021/12/07 16:16:02;;;;;;;49.77;21.40;;;;;;;;;;5123158;27;20212;-73
2021/12/07 16:18:32;;;;;;;50.13;25.13;;;;;;;;;;5122670;27;20266;-70
2021/12/07 16:21:01;;;;;;;50.73;23.43;;;;;;;;;;5125142;27;20565;-70